createdAt,value
2019-01-03T00:02:38.423Z,93.54
2019-01-03T00:08:15.358Z,93.24
2019-01-03T00:11:03.023Z,93.34
2019-01-03T00:13:50.812Z,92.89
2019-01-03T00:16:38.414Z,93.13
2019-01-03T00:19:45.389Z,93.48
2019-01-03T00:25:41.433Z,92.95
2019-01-03T00:28:29.033Z,93.15
2019-01-03T00:31:16.679Z,93.41
2019-01-03T00:34:04.279Z,93.84
2019-01-03T00:37:11.239Z,93.66
2019-01-03T00:39:58.835Z,93.96
2019-01-03T00:42:46.465Z,93.82
2019-01-03T00:45:34.069Z,94.08
2019-01-03T00:48:21.771Z,93.91
2019-01-03T00:53:58.475Z,93.82
2019-01-03T00:56:46.075Z,94.07
2019-01-03T00:59:33.787Z,93.67
2019-01-03T01:02:21.457Z,93.55
2019-01-03T01:05:09.310Z,93.76
2019-01-03T01:14:19.383Z,92.91
2019-01-03T01:17:26.272Z,92.78
2019-01-03T01:20:33.194Z,92.95
2019-01-03T01:28:51.413Z,93.04
2019-01-03T01:31:39.016Z,93.04
2019-01-03T01:34:26.681Z,92.82
2019-01-03T01:37:14.351Z,92.95
2019-01-03T01:42:37.293Z,92.19
2019-01-03T01:45:45.835Z,92.32
2019-01-03T01:48:52.763Z,91.89
2019-01-03T01:51:59.722Z,92.34
2019-01-03T01:54:47.321Z,93.26
2019-01-03T01:57:35.089Z,93.16
2019-01-03T02:00:22.758Z,92.88
2019-01-03T02:03:10.637Z,92.05
2019-01-03T02:06:17.580Z,92.71
2019-01-03T02:09:05.386Z,92.61
2019-01-03T02:15:01.411Z,92.70
2019-01-03T02:17:49.076Z,92.94
2019-01-03T02:20:56.150Z,92.56
2019-01-03T02:23:43.811Z,92.92
2019-01-03T02:26:31.516Z,93.00
2019-01-03T02:29:19.112Z,93.19
2019-01-03T02:32:26.180Z,93.23
2019-01-03T02:35:33.103Z,93.61
2019-01-03T02:38:40.097Z,93.88
2019-01-03T02:47:31.006Z,93.44
2019-01-03T02:53:26.694Z,93.77
2019-01-03T02:59:03.499Z,94.40
2019-01-03T03:01:51.094Z,94.96
2019-01-03T03:04:38.886Z,94.98
2019-01-03T03:07:26.481Z,94.99
2019-01-03T03:13:28.426Z,94.12
2019-01-03T03:16:16.136Z,94.97
2019-01-03T03:19:03.803Z,94.66
2019-01-03T03:22:10.770Z,94.39
2019-01-03T03:24:58.368Z,94.99
2019-01-03T03:27:46.000Z,94.41
2019-01-03T03:30:52.948Z,94.81
2019-01-03T03:33:40.643Z,95.18
2019-01-03T03:39:17.425Z,95.45
2019-01-03T03:42:24.352Z,95.43
2019-01-03T03:45:12.062Z,95.37
2019-01-03T03:54:02.562Z,95.23
2019-01-03T03:59:44.723Z,96.40
2019-01-03T04:02:51.676Z,96.35
2019-01-03T04:05:39.306Z,98.01
2019-01-03T04:08:26.975Z,98.09
2019-01-03T04:11:33.936Z,98.02
2019-01-03T04:14:21.682Z,97.40
2019-01-03T04:17:09.373Z,96.77
2019-01-03T04:23:05.414Z,96.04
2019-01-03T04:25:53.041Z,96.15
2019-01-03T04:29:00.097Z,96.72
2019-01-03T04:34:37.040Z,96.21
2019-01-03T04:37:24.635Z,97.09
2019-01-03T04:40:12.269Z,97.26
2019-01-03T04:42:59.868Z,97.29
2019-01-03T04:45:47.758Z,97.30
2019-01-03T04:52:03.125Z,96.95
2019-01-03T04:54:50.800Z,96.24
2019-01-03T04:57:38.443Z,96.98
2019-01-03T05:00:46.848Z,96.90
2019-01-03T05:03:34.571Z,97.22
2019-01-03T05:11:51.047Z,96.28
2019-01-03T05:14:58.005Z,96.54
2019-01-03T05:17:45.610Z,97.27
2019-01-03T05:20:33.393Z,97.40
2019-01-03T05:23:20.998Z,97.56
2019-01-03T05:26:27.958Z,97.76
2019-01-03T05:29:34.893Z,97.52
2019-01-03T05:32:22.527Z,97.71
2019-01-03T05:35:10.138Z,97.14
2019-01-03T05:40:52.927Z,94.15
2019-01-03T05:46:29.634Z,92.78
2019-01-03T05:49:17.305Z,93.44
2019-01-03T05:54:40.355Z,95.92
2019-01-03T05:57:28.063Z,96.69
2019-01-03T06:00:15.733Z,96.66
2019-01-03T06:03:03.362Z,97.73
2019-01-03T06:05:50.965Z,97.65
2019-01-03T06:08:57.932Z,98.10
2019-01-03T06:14:53.975Z,98.14
2019-01-03T06:17:41.574Z,98.50
2019-01-03T06:20:29.279Z,98.43
2019-01-03T06:23:16.948Z,98.03
2019-01-03T06:26:04.691Z,98.22
2019-01-03T06:28:52.344Z,98.35
2019-01-03T06:31:40.145Z,97.44
2019-01-03T06:34:27.743Z,96.72
2019-01-03T06:37:15.480Z,96.27
2019-01-03T06:40:03.100Z,95.42
2019-01-03T06:45:46.073Z,96.99
2019-01-03T06:48:33.736Z,97.58
2019-01-03T06:51:21.504Z,97.57
2019-01-03T06:54:09.112Z,98.09
2019-01-03T06:56:56.839Z,98.92
2019-01-03T06:59:44.506Z,98.41
2019-01-03T07:02:32.290Z,98.41
2019-01-03T07:05:19.888Z,98.96
2019-01-03T07:08:07.521Z,99.17
2019-01-03T07:11:14.377Z,99.05
2019-01-03T07:14:02.093Z,99.00
2019-01-03T07:16:49.758Z,99.02
2019-01-03T07:22:32.164Z,98.91
2019-01-03T07:25:39.043Z,99.15
2019-01-03T07:28:45.897Z,98.58
2019-01-03T07:31:52.787Z,99.20
2019-01-03T07:34:40.380Z,99.39
2019-01-03T07:37:47.341Z,98.83
2019-01-03T07:40:35.024Z,99.24
2019-01-03T07:45:58.085Z,98.78
2019-01-03T07:49:05.050Z,98.56
2019-01-03T07:52:11.990Z,98.07
2019-01-03T07:54:59.694Z,98.82
2019-01-03T07:57:47.372Z,98.98
2019-01-03T08:00:35.069Z,99.63
2019-01-03T08:03:41.928Z,99.39
2019-01-03T08:06:29.750Z,98.41
2019-01-03T08:12:25.781Z,98.57
2019-01-03T08:15:13.381Z,98.86
2019-01-03T08:18:01.010Z,98.71
2019-01-03T08:20:48.692Z,97.78
2019-01-03T08:26:31.295Z,98.00
2019-01-03T08:29:19.030Z,98.02
2019-01-03T08:32:06.632Z,97.95
2019-01-03T08:34:54.266Z,97.95
2019-01-03T08:37:41.939Z,97.26
2019-01-03T08:40:48.910Z,97.40
2019-01-03T08:43:55.780Z,97.35
2019-01-03T08:46:43.536Z,97.33
2019-01-03T08:49:31.148Z,97.26
2019-01-03T08:52:18.813Z,97.46
2019-01-03T08:55:06.411Z,98.64
2019-01-03T08:57:54.067Z,98.65
2019-01-03T09:03:50.203Z,98.45
2019-01-03T09:06:37.804Z,98.15
2019-01-03T09:09:47.112Z,98.44
2019-01-03T09:16:02.466Z,98.23
2019-01-03T09:18:50.143Z,98.24
2019-01-03T09:21:57.198Z,98.07
2019-01-03T09:25:04.050Z,97.85
2019-01-03T09:30:50.456Z,96.44
2019-01-03T09:33:38.198Z,95.56
2019-01-03T09:36:45.159Z,94.95
2019-01-03T09:39:32.829Z,94.18
2019-01-03T09:42:20.609Z,94.41
2019-01-03T09:45:08.280Z,94.63
2019-01-03T09:50:49.013Z,94.97
2019-01-03T09:53:36.903Z,95.59
2019-01-03T09:56:24.708Z,95.40
2019-01-03T09:59:12.495Z,95.71
2019-01-03T10:02:00.168Z,95.86
2019-01-03T10:04:48.034Z,95.60
2019-01-03T10:07:35.834Z,95.57
2019-01-03T10:10:44.368Z,95.29
2019-01-03T10:13:32.165Z,95.24
2019-01-03T10:16:20.127Z,95.03
2019-01-03T10:19:07.925Z,94.39
2019-01-03T10:21:55.629Z,93.04
2019-01-03T10:24:43.426Z,92.95
2019-01-03T10:27:31.294Z,93.68
2019-01-03T10:29:59.778Z,93.36
2019-01-03T10:32:47.486Z,93.47
2019-01-03T10:35:35.287Z,93.46
2019-01-03T10:38:22.993Z,93.16
2019-01-03T10:41:10.808Z,93.18
2019-01-03T10:43:39.364Z,93.63
2019-01-03T10:46:27.086Z,93.01
2019-01-03T10:48:55.601Z,92.99
2019-01-03T10:51:43.348Z,92.45
2019-01-03T10:54:31.186Z,93.04
2019-01-03T10:56:59.664Z,92.41
2019-01-03T10:59:28.146Z,91.55
2019-01-03T11:01:56.661Z,91.97
2019-01-03T11:04:25.141Z,91.24
2019-01-03T11:07:12.998Z,92.08
2019-01-03T11:09:41.557Z,91.12
2019-01-03T11:18:17.305Z,90.05
2019-01-03T11:21:05.035Z,89.96
2019-01-03T11:26:46.905Z,91.50
2019-01-03T11:29:34.609Z,89.53
2019-01-03T11:32:03.161Z,89.00
2019-01-03T11:34:51.061Z,88.12
2019-01-03T11:37:38.651Z,88.37
2019-01-03T11:40:47.181Z,88.76
2019-01-03T11:43:34.994Z,87.82
2019-01-03T11:46:03.516Z,88.92
2019-01-03T11:48:51.211Z,89.66
2019-01-03T11:51:21.499Z,89.05
2019-01-03T11:53:50.063Z,88.45
2019-01-03T11:56:18.531Z,89.70
2019-01-03T11:58:47.129Z,89.68
2019-01-03T12:01:15.702Z,89.85
2019-01-03T12:03:44.626Z,90.48
2019-01-03T12:06:13.105Z,89.33
2019-01-03T12:08:41.728Z,90.28
2019-01-03T12:11:10.242Z,89.65
2019-01-03T12:13:38.726Z,89.58
2019-01-03T12:16:07.364Z,89.46
2019-01-03T12:18:35.913Z,89.13
2019-01-03T12:21:04.468Z,90.12
2019-01-03T12:23:32.978Z,90.24
2019-01-03T12:26:01.463Z,90.34
2019-01-03T12:28:30.131Z,90.77
2019-01-03T12:30:58.694Z,90.37
2019-01-03T12:33:27.178Z,91.13
2019-01-03T12:35:55.758Z,90.84
2019-01-03T12:38:24.243Z,91.07
2019-01-03T12:40:52.778Z,91.46
2019-01-03T12:43:21.267Z,91.69
2019-01-03T12:45:49.818Z,91.32
2019-01-03T12:48:18.406Z,90.95
2019-01-03T12:50:46.890Z,91.51
2019-01-03T12:53:15.419Z,90.79
2019-01-03T12:55:43.982Z,90.54
2019-01-03T12:58:12.530Z,89.68
2019-01-03T13:00:41.185Z,89.20
2019-01-03T13:03:09.807Z,89.80
2019-01-03T13:05:38.480Z,89.33
2019-01-03T13:08:06.962Z,88.63
2019-01-03T13:10:35.513Z,88.82
2019-01-03T13:13:04.123Z,88.48
2019-01-03T13:15:32.731Z,88.22
2019-01-03T13:18:01.250Z,88.29
2019-01-03T13:20:29.734Z,89.21
2019-01-03T13:22:58.288Z,89.70
2019-01-03T13:25:26.823Z,89.51
2019-01-03T13:27:55.326Z,89.37
2019-01-03T13:30:24.029Z,89.30
2019-01-03T13:32:52.515Z,88.69
2019-01-03T13:35:22.143Z,89.33
2019-01-03T13:37:50.726Z,89.18
2019-01-03T13:40:19.234Z,88.35
2019-01-03T13:42:47.888Z,89.00
2019-01-03T13:45:16.369Z,89.25
2019-01-03T13:47:44.934Z,88.86
2019-01-03T13:50:13.585Z,89.07
2019-01-03T13:52:42.140Z,89.36
2019-01-03T13:55:10.743Z,89.02
2019-01-03T13:57:39.218Z,88.00
2019-01-03T14:00:09.667Z,87.92
2019-01-03T14:02:38.250Z,86.95
2019-01-03T14:05:06.888Z,86.60
2019-01-03T14:07:35.654Z,86.23
2019-01-03T14:10:05.674Z,86.54
2019-01-03T14:12:34.226Z,86.40
2019-01-03T14:15:02.883Z,87.45
2019-01-03T14:17:31.504Z,86.99
2019-01-03T14:20:00.030Z,88.05
2019-01-03T14:22:28.496Z,87.04
2019-01-03T14:24:56.976Z,86.39
2019-01-03T14:27:25.512Z,86.63
2019-01-03T14:29:54.001Z,86.77
2019-01-03T14:32:22.528Z,87.03
2019-01-03T14:34:51.010Z,87.39
2019-01-03T14:37:19.784Z,86.99
2019-01-03T14:39:48.435Z,86.45
2019-01-03T14:42:16.913Z,85.95
2019-01-03T14:44:45.525Z,86.29
2019-01-03T14:47:14.136Z,86.15
2019-01-03T14:49:42.801Z,87.04
2019-01-03T14:52:11.281Z,87.04
2019-01-03T14:54:39.842Z,87.59
2019-01-03T14:57:08.458Z,86.22
2019-01-03T14:59:37.000Z,85.73
2019-01-03T15:02:05.734Z,85.86
2019-01-03T15:04:34.268Z,86.24
2019-01-03T15:07:02.759Z,86.57
2019-01-03T15:09:31.345Z,86.34
2019-01-03T15:11:59.901Z,86.78
2019-01-03T15:14:28.420Z,87.48
2019-01-03T15:16:57.674Z,87.07
2019-01-03T15:19:28.918Z,87.07
2019-01-03T15:21:57.544Z,86.11
2019-01-03T15:24:26.094Z,87.10
2019-01-03T15:26:54.760Z,86.66
2019-01-03T15:29:23.384Z,86.70
2019-01-03T15:31:52.149Z,86.93
2019-01-03T15:34:21.171Z,86.57
2019-01-03T15:36:52.973Z,87.25
2019-01-03T15:39:23.581Z,86.70
2019-01-03T15:41:52.936Z,86.57
2019-01-03T15:44:22.095Z,86.39
2019-01-03T15:46:52.768Z,87.38
2019-01-03T15:49:21.438Z,87.65
2019-01-03T15:51:50.061Z,87.49
2019-01-03T15:54:19.016Z,87.68
2019-01-03T15:56:47.889Z,87.42
2019-01-03T15:59:16.439Z,88.41
2019-01-03T16:01:45.022Z,87.84
2019-01-03T16:04:13.545Z,87.12
2019-01-03T16:06:42.173Z,87.49
2019-01-03T16:09:10.681Z,88.55
2019-01-03T16:11:39.427Z,88.69
2019-01-03T16:14:07.985Z,89.09
2019-01-03T16:16:37.652Z,89.97
2019-01-03T16:19:06.285Z,89.89
2019-01-03T16:21:34.942Z,90.35
2019-01-03T16:24:04.314Z,90.55
2019-01-03T16:26:32.926Z,91.44
2019-01-03T16:29:01.650Z,92.09
2019-01-03T16:31:30.192Z,92.24
2019-01-03T16:33:58.858Z,92.62
2019-01-03T16:36:27.401Z,92.92
2019-01-03T16:38:56.156Z,92.67
2019-01-03T16:41:24.771Z,93.34
2019-01-03T16:43:53.315Z,93.53
2019-01-03T16:46:21.892Z,93.44
2019-01-03T16:48:50.846Z,93.84
2019-01-03T16:51:19.731Z,94.09
2019-01-03T16:53:48.344Z,94.37
2019-01-03T16:56:16.840Z,94.73
2019-01-03T16:58:45.432Z,94.89
2019-01-03T17:01:14.052Z,94.83
2019-01-03T17:03:45.047Z,94.95
2019-01-03T17:06:13.883Z,95.08
2019-01-03T17:08:42.731Z,95.07
2019-01-03T17:11:13.378Z,95.04
2019-01-03T17:13:43.444Z,94.82
2019-01-03T17:16:12.304Z,95.19
2019-01-03T17:18:42.090Z,95.55
2019-01-03T17:21:10.735Z,95.52
2019-01-03T17:23:39.326Z,95.45
2019-01-03T17:26:07.878Z,95.21
2019-01-03T17:28:36.632Z,95.45
2019-01-03T17:31:05.255Z,95.24
2019-01-03T17:33:33.839Z,95.65
2019-01-03T17:36:02.555Z,95.63
2019-01-03T17:38:31.040Z,95.45
2019-01-03T17:40:59.708Z,93.41
2019-01-03T17:43:28.355Z,92.67
2019-01-03T17:45:56.847Z,92.25
2019-01-03T17:48:25.368Z,92.47
2019-01-03T17:50:53.922Z,91.38
2019-01-03T17:53:22.577Z,91.48
2019-01-03T17:55:51.198Z,92.47
2019-01-03T17:58:19.890Z,93.31
2019-01-03T18:00:48.571Z,93.41
2019-01-03T18:03:17.248Z,94.37
2019-01-03T18:05:45.949Z,94.05
2019-01-03T18:08:14.510Z,94.32
2019-01-03T18:10:43.134Z,93.65
2019-01-03T18:13:11.663Z,94.61
2019-01-03T18:15:40.188Z,95.10
2019-01-03T18:18:08.811Z,95.16
2019-01-03T18:20:37.291Z,94.97
2019-01-03T18:23:05.843Z,93.91
2019-01-03T18:25:34.387Z,94.20
2019-01-03T18:28:02.873Z,94.12
2019-01-03T18:30:31.458Z,94.55
2019-01-03T18:33:00.085Z,95.04
2019-01-03T18:35:28.640Z,95.18
2019-01-03T18:37:57.182Z,95.55
2019-01-03T18:40:25.815Z,95.60
2019-01-03T18:42:54.419Z,95.57
2019-01-03T18:45:23.045Z,95.76
2019-01-03T18:47:51.612Z,95.91
2019-01-03T18:50:20.233Z,96.62
2019-01-03T18:52:48.881Z,96.41
2019-01-03T18:55:17.459Z,96.38
2019-01-03T18:57:46.088Z,96.34
2019-01-03T19:00:14.683Z,96.34
2019-01-03T19:02:43.303Z,97.04
2019-01-03T19:05:11.973Z,97.05
2019-01-03T19:07:40.549Z,97.41
2019-01-03T19:10:10.549Z,97.32
2019-01-03T19:12:39.206Z,98.11
2019-01-03T19:15:09.549Z,97.70
2019-01-03T19:17:38.210Z,99.03
2019-01-03T19:20:09.460Z,98.74
2019-01-03T19:22:38.162Z,98.71
2019-01-03T19:25:14.913Z,99.20
2019-01-03T19:27:43.643Z,99.02
2019-01-03T19:30:13.055Z,99.47
2019-01-03T19:32:41.753Z,97.67
2019-01-03T19:35:11.728Z,97.82
2019-01-03T19:37:40.352Z,96.29
2019-01-03T19:40:11.534Z,95.27
2019-01-03T19:42:40.881Z,95.52
2019-01-03T19:45:11.774Z,95.15
2019-01-03T19:47:40.528Z,95.51
2019-01-03T19:50:15.227Z,95.14
2019-01-03T19:52:44.827Z,93.33
2019-01-03T19:55:13.489Z,94.42
2019-01-03T19:57:42.192Z,95.06
2019-01-03T20:00:13.730Z,94.89
2019-01-03T20:02:45.633Z,97.00
2019-01-03T20:05:14.496Z,97.81
2019-01-03T20:07:43.223Z,97.28
2019-01-03T20:10:13.191Z,97.27
2019-01-03T20:12:43.337Z,98.34
2019-01-03T20:15:14.101Z,98.64
2019-01-03T20:17:42.876Z,99.88
2019-01-03T20:20:11.888Z,99.82
2019-01-03T20:22:40.934Z,99.51
2019-01-03T20:25:10.664Z,99.98
2019-01-03T20:27:39.431Z,100.00
2019-01-03T20:30:10.802Z,100.00
2019-01-03T20:32:39.783Z,100.00
2019-01-03T20:35:08.973Z,100.00
2019-01-03T20:37:37.757Z,100.00
2019-01-03T20:40:09.091Z,100.00
2019-01-03T20:42:38.050Z,100.00
2019-01-03T20:45:11.884Z,100.00
2019-01-03T20:47:40.802Z,100.00
2019-01-03T20:50:12.473Z,100.00
2019-01-03T20:52:41.342Z,100.00
2019-01-03T20:55:10.118Z,100.00
2019-01-03T20:57:38.928Z,100.00
2019-01-03T21:00:13.339Z,100.00
2019-01-03T21:02:42.133Z,100.00
2019-01-03T21:05:10.916Z,100.00
2019-01-03T21:07:40.179Z,100.00
2019-01-03T21:10:10.938Z,100.00
2019-01-03T21:12:39.745Z,100.00
2019-01-03T21:15:11.784Z,100.00
2019-01-03T21:17:43.238Z,100.00
2019-01-03T21:20:14.214Z,100.00
2019-01-03T21:22:42.945Z,100.00
2019-01-03T21:25:12.162Z,99.90
2019-01-03T21:27:43.598Z,99.78
2019-01-03T21:30:15.942Z,99.35
2019-01-03T21:32:44.689Z,98.91
2019-01-03T21:35:13.388Z,99.17
2019-01-03T21:37:42.286Z,99.45
2019-01-03T21:40:11.924Z,99.25
2019-01-03T21:42:40.668Z,98.81
2019-01-03T21:45:11.141Z,97.76
2019-01-03T21:47:40.086Z,97.48
2019-01-03T21:50:10.924Z,97.52
2019-01-03T21:52:39.644Z,97.49
2019-01-03T21:55:08.394Z,98.21
2019-01-03T21:57:37.013Z,98.62
2019-01-03T22:00:08.709Z,98.11
2019-01-03T22:02:37.254Z,97.46
2019-01-03T22:05:06.468Z,97.68
2019-01-03T22:07:35.047Z,98.32
2019-01-03T22:10:04.668Z,98.49
2019-01-03T22:12:33.222Z,98.65
2019-01-03T22:15:01.765Z,99.11
2019-01-03T22:17:30.445Z,98.89
2019-01-03T22:19:58.974Z,99.38
2019-01-03T22:22:27.649Z,99.89
2019-01-03T22:24:56.411Z,99.65
2019-01-03T22:27:25.026Z,99.71
2019-01-03T22:29:53.767Z,99.65
2019-01-03T22:32:22.347Z,99.75
2019-01-03T22:34:50.901Z,99.65
2019-01-03T22:37:19.500Z,100.00
2019-01-03T22:39:48.148Z,100.00
2019-01-03T22:42:16.831Z,100.00
2019-01-03T22:44:45.381Z,100.00
2019-01-03T22:47:13.936Z,100.00
2019-01-03T22:49:42.525Z,100.00
2019-01-03T22:52:11.145Z,100.00
2019-01-03T22:54:39.912Z,100.00
2019-01-03T22:57:08.465Z,100.00
2019-01-03T22:59:37.606Z,100.00
2019-01-03T23:02:07.852Z,100.00
2019-01-03T23:04:36.504Z,100.00
2019-01-03T23:07:05.412Z,100.00
2019-01-03T23:09:33.976Z,100.00
2019-01-03T23:12:02.688Z,100.00
2019-01-03T23:14:31.347Z,100.00
2019-01-03T23:16:59.927Z,100.00
2019-01-03T23:19:28.764Z,100.00
2019-01-03T23:21:57.319Z,100.00
2019-01-03T23:24:25.895Z,100.00
2019-01-03T23:26:54.416Z,100.00
2019-01-03T23:29:22.978Z,100.00
2019-01-03T23:31:53.796Z,100.00
2019-01-03T23:34:28.041Z,100.00
2019-01-03T23:36:53.003Z,100.00
2019-01-03T23:39:21.527Z,100.00
2019-01-03T23:41:50.087Z,100.00
2019-01-03T23:44:18.762Z,100.00
2019-01-03T23:46:47.320Z,100.00
2019-01-03T23:49:16.015Z,100.00
2019-01-03T23:51:44.676Z,100.00
2019-01-03T23:54:13.240Z,100.00
2019-01-03T23:56:41.888Z,100.00
2019-01-03T23:59:10.513Z,100.00
